sensor_id;sensor_type;location;lat;lon;timestamp;P1;durP1;ratioP1;P2;durP2;ratioP2
19525;SDS011;9907;42.676;26.348;2022-08-19T00:00:29;10.40;;;8.30;;
19525;SDS011;9907;42.676;26.348;2022-08-19T00:02:55;8.47;;;7.77;;
19525;SDS011;9907;42.676;26.348;2022-08-19T00:05:20;9.70;;;8.00;;
19525;SDS011;9907;42.676;26.348;2022-08-19T00:07:46;8.00;;;7.33;;
19525;SDS011;9907;42.676;26.348;2022-08-19T00:10:14;11.20;;;8.00;;
19525;SDS011;9907;42.676;26.348;2022-08-19T00:12:40;11.03;;;8.27;;
19525;SDS011;9907;42.676;26.348;2022-08-19T00:15:07;9.10;;;8.20;;
19525;SDS011;9907;42.676;26.348;2022-08-19T00:17:37;8.87;;;8.07;;
19525;SDS011;9907;42.676;26.348;2022-08-19T00:20:07;8.63;;;7.77;;
19525;SDS011;9907;42.676;26.348;2022-08-19T00:22:36;10.03;;;8.00;;
19525;SDS011;9907;42.676;26.348;2022-08-19T00:25:02;8.50;;;7.80;;
19525;SDS011;9907;42.676;26.348;2022-08-19T00:27:28;9.50;;;7.70;;
19525;SDS011;9907;42.676;26.348;2022-08-19T00:29:53;8.70;;;7.80;;
19525;SDS011;9907;42.676;26.348;2022-08-19T00:32:19;8.80;;;7.90;;
19525;SDS011;9907;42.676;26.348;2022-08-19T00:34:45;9.47;;;7.77;;
19525;SDS011;9907;42.676;26.348;2022-08-19T00:37:11;8.70;;;7.90;;
19525;SDS011;9907;42.676;26.348;2022-08-19T00:39:36;8.50;;;7.80;;
19525;SDS011;9907;42.676;26.348;2022-08-19T00:42:02;9.30;;;8.23;;
19525;SDS011;9907;42.676;26.348;2022-08-19T00:44:28;8.63;;;7.90;;
19525;SDS011;9907;42.676;26.348;2022-08-19T00:46:56;9.23;;;8.40;;
19525;SDS011;9907;42.676;26.348;2022-08-19T00:51:56;8.93;;;7.97;;
19525;SDS011;9907;42.676;26.348;2022-08-19T00:54:35;10.77;;;8.70;;
19525;SDS011;9907;42.676;26.348;2022-08-19T00:57:03;8.60;;;7.77;;
19525;SDS011;9907;42.676;26.348;2022-08-19T00:59:31;9.87;;;8.87;;
19525;SDS011;9907;42.676;26.348;2022-08-19T01:02:00;9.40;;;8.60;;
19525;SDS011;9907;42.676;26.348;2022-08-19T01:04:26;9.23;;;8.33;;
19525;SDS011;9907;42.676;26.348;2022-08-19T01:06:52;8.60;;;7.90;;
19525;SDS011;9907;42.676;26.348;2022-08-19T01:09:18;9.57;;;7.57;;
19525;SDS011;9907;42.676;26.348;2022-08-19T01:11:43;8.57;;;7.70;;
19525;SDS011;9907;42.676;26.348;2022-08-19T01:14:10;8.87;;;7.90;;
19525;SDS011;9907;42.676;26.348;2022-08-19T01:16:37;9.30;;;8.43;;
19525;SDS011;9907;42.676;26.348;2022-08-19T01:19:12;8.97;;;8.17;;
19525;SDS011;9907;42.676;26.348;2022-08-19T01:21:49;9.17;;;8.27;;
19525;SDS011;9907;42.676;26.348;2022-08-19T01:24:20;11.73;;;10.63;;
19525;SDS011;9907;42.676;26.348;2022-08-19T01:26:46;9.73;;;8.30;;
19525;SDS011;9907;42.676;26.348;2022-08-19T01:29:12;9.20;;;8.30;;
19525;SDS011;9907;42.676;26.348;2022-08-19T01:31:39;9.33;;;8.50;;
19525;SDS011;9907;42.676;26.348;2022-08-19T01:34:05;9.43;;;8.43;;
19525;SDS011;9907;42.676;26.348;2022-08-19T01:36:38;10.13;;;8.93;;
19525;SDS011;9907;42.676;26.348;2022-08-19T01:39:22;10.57;;;9.27;;
19525;SDS011;9907;42.676;26.348;2022-08-19T01:41:49;9.17;;;8.47;;
19525;SDS011;9907;42.676;26.348;2022-08-19T01:44:19;9.73;;;8.83;;
19525;SDS011;9907;42.676;26.348;2022-08-19T01:46:49;10.97;;;8.77;;
19525;SDS011;9907;42.676;26.348;2022-08-19T01:49:16;10.07;;;9.17;;
19525;SDS011;9907;42.676;26.348;2022-08-19T01:51:43;9.93;;;8.90;;
19525;SDS011;9907;42.676;26.348;2022-08-19T01:54:09;9.90;;;9.10;;
19525;SDS011;9907;42.676;26.348;2022-08-19T01:56:36;10.10;;;9.10;;
19525;SDS011;9907;42.676;26.348;2022-08-19T01:59:04;9.17;;;8.47;;
19525;SDS011;9907;42.676;26.348;2022-08-19T02:01:34;11.60;;;9.53;;
19525;SDS011;9907;42.676;26.348;2022-08-19T02:04:00;10.37;;;9.37;;
19525;SDS011;9907;42.676;26.348;2022-08-19T02:06:25;9.87;;;8.87;;
19525;SDS011;9907;42.676;26.348;2022-08-19T02:08:52;11.77;;;8.87;;
19525;SDS011;9907;42.676;26.348;2022-08-19T02:11:22;9.37;;;8.57;;
19525;SDS011;9907;42.676;26.348;2022-08-19T02:13:53;10.50;;;9.50;;
19525;SDS011;9907;42.676;26.348;2022-08-19T02:16:19;9.33;;;8.40;;
19525;SDS011;9907;42.676;26.348;2022-08-19T02:18:45;10.00;;;8.97;;
19525;SDS011;9907;42.676;26.348;2022-08-19T02:21:13;10.07;;;9.10;;
19525;SDS011;9907;42.676;26.348;2022-08-19T02:23:40;9.10;;;8.20;;
19525;SDS011;9907;42.676;26.348;2022-08-19T02:26:07;10.00;;;9.10;;
19525;SDS011;9907;42.676;26.348;2022-08-19T02:28:32;9.63;;;8.67;;
19525;SDS011;9907;42.676;26.348;2022-08-19T02:30:58;9.63;;;8.73;;
19525;SDS011;9907;42.676;26.348;2022-08-19T02:33:25;9.50;;;8.60;;
19525;SDS011;9907;42.676;26.348;2022-08-19T02:35:51;9.57;;;8.67;;
19525;SDS011;9907;42.676;26.348;2022-08-19T02:38:17;9.30;;;8.30;;
19525;SDS011;9907;42.676;26.348;2022-08-19T02:40:56;9.63;;;8.77;;
19525;SDS011;9907;42.676;26.348;2022-08-19T02:43:23;10.77;;;8.37;;
19525;SDS011;9907;42.676;26.348;2022-08-19T02:45:51;12.33;;;8.13;;
19525;SDS011;9907;42.676;26.348;2022-08-19T02:48:20;9.43;;;8.43;;
19525;SDS011;9907;42.676;26.348;2022-08-19T02:50:48;9.43;;;8.20;;
19525;SDS011;9907;42.676;26.348;2022-08-19T02:53:18;9.23;;;8.43;;
19525;SDS011;9907;42.676;26.348;2022-08-19T02:55:45;9.23;;;8.33;;
19525;SDS011;9907;42.676;26.348;2022-08-19T02:58:12;10.40;;;9.30;;
19525;SDS011;9907;42.676;26.348;2022-08-19T03:00:46;10.93;;;8.77;;
19525;SDS011;9907;42.676;26.348;2022-08-19T03:03:14;9.00;;;8.30;;
19525;SDS011;9907;42.676;26.348;2022-08-19T03:05:40;10.80;;;9.70;;
19525;SDS011;9907;42.676;26.348;2022-08-19T03:08:07;10.33;;;8.53;;
19525;SDS011;9907;42.676;26.348;2022-08-19T03:10:44;9.63;;;8.53;;
19525;SDS011;9907;42.676;26.348;2022-08-19T03:13:16;9.57;;;8.33;;
19525;SDS011;9907;42.676;26.348;2022-08-19T03:15:43;10.47;;;9.47;;
19525;SDS011;9907;42.676;26.348;2022-08-19T03:18:11;10.50;;;9.40;;
19525;SDS011;9907;42.676;26.348;2022-08-19T03:20:41;10.10;;;9.10;;
19525;SDS011;9907;42.676;26.348;2022-08-19T03:23:11;10.37;;;9.30;;
19525;SDS011;9907;42.676;26.348;2022-08-19T03:25:41;9.83;;;8.93;;
19525;SDS011;9907;42.676;26.348;2022-08-19T03:28:09;10.47;;;9.47;;
19525;SDS011;9907;42.676;26.348;2022-08-19T03:30:36;9.47;;;8.53;;
19525;SDS011;9907;42.676;26.348;2022-08-19T03:33:02;10.60;;;9.50;;
19525;SDS011;9907;42.676;26.348;2022-08-19T03:35:28;11.60;;;9.80;;
19525;SDS011;9907;42.676;26.348;2022-08-19T03:37:53;10.83;;;9.67;;
19525;SDS011;9907;42.676;26.348;2022-08-19T03:40:19;10.63;;;9.60;;
19525;SDS011;9907;42.676;26.348;2022-08-19T03:42:44;10.67;;;9.23;;
19525;SDS011;9907;42.676;26.348;2022-08-19T03:45:11;11.03;;;9.63;;
19525;SDS011;9907;42.676;26.348;2022-08-19T03:47:37;12.00;;;9.33;;
19525;SDS011;9907;42.676;26.348;2022-08-19T03:50:02;10.43;;;9.43;;
19525;SDS011;9907;42.676;26.348;2022-08-19T03:52:29;11.23;;;9.60;;
19525;SDS011;9907;42.676;26.348;2022-08-19T03:54:54;10.20;;;9.20;;
19525;SDS011;9907;42.676;26.348;2022-08-19T03:57:20;11.87;;;9.67;;
19525;SDS011;9907;42.676;26.348;2022-08-19T03:59:45;17.60;;;11.10;;
19525;SDS011;9907;42.676;26.348;2022-08-19T04:02:11;13.63;;;10.30;;
19525;SDS011;9907;42.676;26.348;2022-08-19T04:04:38;15.17;;;11.13;;
19525;SDS011;9907;42.676;26.348;2022-08-19T04:07:05;13.70;;;10.63;;
19525;SDS011;9907;42.676;26.348;2022-08-19T04:09:31;11.33;;;10.20;;
19525;SDS011;9907;42.676;26.348;2022-08-19T04:11:59;17.00;;;11.23;;
19525;SDS011;9907;42.676;26.348;2022-08-19T04:14:28;11.10;;;10.00;;
19525;SDS011;9907;42.676;26.348;2022-08-19T04:16:59;12.80;;;10.47;;
19525;SDS011;9907;42.676;26.348;2022-08-19T04:19:25;12.27;;;10.07;;
19525;SDS011;9907;42.676;26.348;2022-08-19T04:21:52;12.40;;;9.93;;
19525;SDS011;9907;42.676;26.348;2022-08-19T04:24:19;13.53;;;10.07;;
19525;SDS011;9907;42.676;26.348;2022-08-19T04:26:47;14.80;;;10.37;;
19525;SDS011;9907;42.676;26.348;2022-08-19T04:29:15;13.47;;;9.93;;
19525;SDS011;9907;42.676;26.348;2022-08-19T04:31:44;14.83;;;9.83;;
19525;SDS011;9907;42.676;26.348;2022-08-19T04:34:10;14.77;;;10.40;;
19525;SDS011;9907;42.676;26.348;2022-08-19T04:36:39;13.27;;;10.23;;
19525;SDS011;9907;42.676;26.348;2022-08-19T04:39:08;14.10;;;9.00;;
19525;SDS011;9907;42.676;26.348;2022-08-19T04:41:35;13.43;;;9.30;;
19525;SDS011;9907;42.676;26.348;2022-08-19T04:44:20;11.37;;;8.90;;
19525;SDS011;9907;42.676;26.348;2022-08-19T04:46:46;9.87;;;8.87;;
19525;SDS011;9907;42.676;26.348;2022-08-19T04:49:13;9.60;;;8.23;;
19525;SDS011;9907;42.676;26.348;2022-08-19T04:51:42;12.57;;;8.37;;
19525;SDS011;9907;42.676;26.348;2022-08-19T04:54:10;11.87;;;8.20;;
19525;SDS011;9907;42.676;26.348;2022-08-19T04:56:36;11.43;;;8.90;;
19525;SDS011;9907;42.676;26.348;2022-08-19T04:59:02;12.97;;;8.47;;
19525;SDS011;9907;42.676;26.348;2022-08-19T05:01:31;12.57;;;8.20;;
19525;SDS011;9907;42.676;26.348;2022-08-19T05:03:59;10.00;;;8.00;;
19525;SDS011;9907;42.676;26.348;2022-08-19T05:06:26;14.63;;;8.20;;
19525;SDS011;9907;42.676;26.348;2022-08-19T05:08:53;9.88;;;8.05;;
19525;SDS011;9907;42.676;26.348;2022-08-19T05:11:20;9.50;;;7.22;;
19525;SDS011;9907;42.676;26.348;2022-08-19T05:13:48;8.68;;;7.85;;
19525;SDS011;9907;42.676;26.348;2022-08-19T05:16:15;9.45;;;7.63;;
19525;SDS011;9907;42.676;26.348;2022-08-19T05:18:42;8.85;;;7.93;;
19525;SDS011;9907;42.676;26.348;2022-08-19T05:21:28;11.38;;;7.30;;
19525;SDS011;9907;42.676;26.348;2022-08-19T05:24:13;11.85;;;7.88;;
19525;SDS011;9907;42.676;26.348;2022-08-19T05:26:41;8.40;;;7.43;;
19525;SDS011;9907;42.676;26.348;2022-08-19T05:29:08;8.75;;;6.50;;
19525;SDS011;9907;42.676;26.348;2022-08-19T05:31:35;9.68;;;7.38;;
19525;SDS011;9907;42.676;26.348;2022-08-19T05:34:01;7.70;;;6.68;;
19525;SDS011;9907;42.676;26.348;2022-08-19T05:36:29;8.98;;;6.72;;
19525;SDS011;9907;42.676;26.348;2022-08-19T05:39:00;7.75;;;6.82;;
19525;SDS011;9907;42.676;26.348;2022-08-19T05:41:26;8.82;;;7.25;;
19525;SDS011;9907;42.676;26.348;2022-08-19T05:43:57;8.25;;;6.63;;
19525;SDS011;9907;42.676;26.348;2022-08-19T05:46:23;10.50;;;7.45;;
19525;SDS011;9907;42.676;26.348;2022-08-19T05:48:49;8.85;;;7.22;;
19525;SDS011;9907;42.676;26.348;2022-08-19T05:51:15;7.93;;;6.60;;
19525;SDS011;9907;42.676;26.348;2022-08-19T05:53:41;7.45;;;6.70;;
19525;SDS011;9907;42.676;26.348;2022-08-19T05:56:07;8.35;;;7.55;;
19525;SDS011;9907;42.676;26.348;2022-08-19T05:58:35;7.53;;;6.53;;
19525;SDS011;9907;42.676;26.348;2022-08-19T06:01:02;9.15;;;8.05;;
19525;SDS011;9907;42.676;26.348;2022-08-19T06:03:31;9.70;;;8.55;;
19525;SDS011;9907;42.676;26.348;2022-08-19T06:05:58;12.32;;;7.97;;
19525;SDS011;9907;42.676;26.348;2022-08-19T06:08:24;10.40;;;7.88;;
19525;SDS011;9907;42.676;26.348;2022-08-19T06:10:50;13.30;;;8.60;;
19525;SDS011;9907;42.676;26.348;2022-08-19T06:13:16;15.60;;;10.70;;
19525;SDS011;9907;42.676;26.348;2022-08-19T06:15:44;15.63;;;11.05;;
19525;SDS011;9907;42.676;26.348;2022-08-19T06:18:11;11.98;;;9.65;;
19525;SDS011;9907;42.676;26.348;2022-08-19T06:20:40;11.68;;;9.07;;
19525;SDS011;9907;42.676;26.348;2022-08-19T06:23:07;9.60;;;7.65;;
19525;SDS011;9907;42.676;26.348;2022-08-19T06:25:33;8.40;;;7.18;;
19525;SDS011;9907;42.676;26.348;2022-08-19T06:27:59;8.43;;;7.32;;
19525;SDS011;9907;42.676;26.348;2022-08-19T06:30:25;10.85;;;8.00;;
19525;SDS011;9907;42.676;26.348;2022-08-19T06:32:51;12.32;;;7.00;;
19525;SDS011;9907;42.676;26.348;2022-08-19T06:35:17;8.63;;;7.03;;
19525;SDS011;9907;42.676;26.348;2022-08-19T06:37:42;13.88;;;8.52;;
19525;SDS011;9907;42.676;26.348;2022-08-19T06:40:09;11.80;;;7.80;;
19525;SDS011;9907;42.676;26.348;2022-08-19T06:42:37;8.05;;;6.53;;
19525;SDS011;9907;42.676;26.348;2022-08-19T06:45:03;7.65;;;6.85;;
19525;SDS011;9907;42.676;26.348;2022-08-19T06:47:30;7.85;;;7.05;;
19525;SDS011;9907;42.676;26.348;2022-08-19T06:49:57;8.82;;;7.32;;
19525;SDS011;9907;42.676;26.348;2022-08-19T06:52:33;8.93;;;6.93;;
19525;SDS011;9907;42.676;26.348;2022-08-19T06:55:00;6.65;;;5.97;;
19525;SDS011;9907;42.676;26.348;2022-08-19T06:57:27;8.07;;;6.32;;
19525;SDS011;9907;42.676;26.348;2022-08-19T06:59:56;8.73;;;5.97;;
19525;SDS011;9907;42.676;26.348;2022-08-19T07:02:21;10.55;;;5.85;;
19525;SDS011;9907;42.676;26.348;2022-08-19T07:04:51;7.60;;;5.88;;
19525;SDS011;9907;42.676;26.348;2022-08-19T07:07:17;6.38;;;5.78;;
19525;SDS011;9907;42.676;26.348;2022-08-19T07:09:45;6.38;;;5.78;;
19525;SDS011;9907;42.676;26.348;2022-08-19T07:12:12;7.93;;;6.28;;
19525;SDS011;9907;42.676;26.348;2022-08-19T07:14:40;7.70;;;7.00;;
19525;SDS011;9907;42.676;26.348;2022-08-19T07:17:08;6.15;;;5.55;;
19525;SDS011;9907;42.676;26.348;2022-08-19T07:19:37;23.02;;;15.85;;
19525;SDS011;9907;42.676;26.348;2022-08-19T07:22:04;8.00;;;6.68;;
19525;SDS011;9907;42.676;26.348;2022-08-19T07:24:38;10.23;;;9.23;;
19525;SDS011;9907;42.676;26.348;2022-08-19T07:27:05;6.45;;;5.80;;
19525;SDS011;9907;42.676;26.348;2022-08-19T07:29:32;6.32;;;5.72;;
19525;SDS011;9907;42.676;26.348;2022-08-19T07:32:00;7.50;;;5.60;;
19525;SDS011;9907;42.676;26.348;2022-08-19T07:34:27;9.52;;;6.75;;
19525;SDS011;9907;42.676;26.348;2022-08-19T07:36:55;5.85;;;5.30;;
19525;SDS011;9907;42.676;26.348;2022-08-19T07:39:28;6.72;;;6.07;;
19525;SDS011;9907;42.676;26.348;2022-08-19T07:41:57;7.45;;;5.40;;
19525;SDS011;9907;42.676;26.348;2022-08-19T07:44:24;8.73;;;5.53;;
19525;SDS011;9907;42.676;26.348;2022-08-19T07:46:51;5.47;;;4.70;;
19525;SDS011;9907;42.676;26.348;2022-08-19T07:49:20;6.47;;;5.28;;
19525;SDS011;9907;42.676;26.348;2022-08-19T07:51:49;5.78;;;5.28;;
19525;SDS011;9907;42.676;26.348;2022-08-19T07:54:18;6.90;;;5.20;;
19525;SDS011;9907;42.676;26.348;2022-08-19T07:56:44;5.28;;;4.78;;
19525;SDS011;9907;42.676;26.348;2022-08-19T07:59:10;6.22;;;4.75;;
19525;SDS011;9907;42.676;26.348;2022-08-19T08:01:37;5.13;;;4.63;;
19525;SDS011;9907;42.676;26.348;2022-08-19T08:04:05;5.20;;;4.70;;
19525;SDS011;9907;42.676;26.348;2022-08-19T08:06:50;5.32;;;4.82;;
19525;SDS011;9907;42.676;26.348;2022-08-19T08:09:36;5.28;;;4.75;;
19525;SDS011;9907;42.676;26.348;2022-08-19T08:12:04;8.73;;;5.03;;
19525;SDS011;9907;42.676;26.348;2022-08-19T08:14:51;5.30;;;4.50;;
19525;SDS011;9907;42.676;26.348;2022-08-19T08:17:20;4.32;;;3.92;;
19525;SDS011;9907;42.676;26.348;2022-08-19T08:19:47;4.60;;;4.15;;
19525;SDS011;9907;42.676;26.348;2022-08-19T08:22:14;5.07;;;4.60;;
19525;SDS011;9907;42.676;26.348;2022-08-19T08:25:01;5.75;;;4.30;;
19525;SDS011;9907;42.676;26.348;2022-08-19T08:27:34;5.38;;;4.88;;
19525;SDS011;9907;42.676;26.348;2022-08-19T08:30:02;5.20;;;4.70;;
19525;SDS011;9907;42.676;26.348;2022-08-19T08:32:29;9.65;;;5.00;;
19525;SDS011;9907;42.676;26.348;2022-08-19T08:34:55;6.68;;;4.82;;
19525;SDS011;9907;42.676;26.348;2022-08-19T08:37:20;6.07;;;5.20;;
19525;SDS011;9907;42.676;26.348;2022-08-19T08:39:47;5.45;;;4.90;;
19525;SDS011;9907;42.676;26.348;2022-08-19T08:47:23;6.43;;;5.82;;
19525;SDS011;9907;42.676;26.348;2022-08-19T08:54:54;5.25;;;4.75;;
19525;SDS011;9907;42.676;26.348;2022-08-19T08:57:33;5.72;;;5.07;;
19525;SDS011;9907;42.676;26.348;2022-08-19T09:00:03;7.47;;;5.57;;
19525;SDS011;9907;42.676;26.348;2022-08-19T09:02:33;5.55;;;5.05;;
19525;SDS011;9907;42.676;26.348;2022-08-19T09:04:59;6.50;;;5.28;;
19525;SDS011;9907;42.676;26.348;2022-08-19T09:10:18;6.15;;;5.10;;
19525;SDS011;9907;42.676;26.348;2022-08-19T09:15:44;7.10;;;4.85;;
19525;SDS011;9907;42.676;26.348;2022-08-19T09:18:13;5.60;;;5.07;;
19525;SDS011;9907;42.676;26.348;2022-08-19T09:20:41;4.72;;;4.28;;
19525;SDS011;9907;42.676;26.348;2022-08-19T09:23:07;5.97;;;5.32;;
19525;SDS011;9907;42.676;26.348;2022-08-19T09:25:33;6.57;;;5.03;;
19525;SDS011;9907;42.676;26.348;2022-08-19T09:27:59;5.28;;;4.80;;
19525;SDS011;9907;42.676;26.348;2022-08-19T09:30:28;5.43;;;4.55;;
19525;SDS011;9907;42.676;26.348;2022-08-19T09:32:55;5.43;;;4.72;;
19525;SDS011;9907;42.676;26.348;2022-08-19T09:35:22;7.55;;;5.68;;
19525;SDS011;9907;42.676;26.348;2022-08-19T09:37:50;5.03;;;4.55;;
19525;SDS011;9907;42.676;26.348;2022-08-19T09:40:16;8.07;;;5.40;;
19525;SDS011;9907;42.676;26.348;2022-08-19T09:42:43;5.85;;;5.25;;
19525;SDS011;9907;42.676;26.348;2022-08-19T09:45:09;5.60;;;5.10;;
19525;SDS011;9907;42.676;26.348;2022-08-19T09:47:35;9.15;;;6.28;;
19525;SDS011;9907;42.676;26.348;2022-08-19T09:50:04;6.60;;;4.97;;
19525;SDS011;9907;42.676;26.348;2022-08-19T09:52:32;6.93;;;4.65;;
19525;SDS011;9907;42.676;26.348;2022-08-19T09:54:57;5.72;;;4.72;;
19525;SDS011;9907;42.676;26.348;2022-08-19T09:57:23;7.07;;;4.68;;
19525;SDS011;9907;42.676;26.348;2022-08-19T09:59:48;5.53;;;4.38;;
19525;SDS011;9907;42.676;26.348;2022-08-19T10:02:14;5.55;;;5.07;;
19525;SDS011;9907;42.676;26.348;2022-08-19T10:04:39;3.88;;;3.58;;
19525;SDS011;9907;42.676;26.348;2022-08-19T10:07:23;5.75;;;4.43;;
19525;SDS011;9907;42.676;26.348;2022-08-19T10:09:49;4.90;;;4.50;;
19525;SDS011;9907;42.676;26.348;2022-08-19T10:12:15;4.78;;;4.28;;
19525;SDS011;9907;42.676;26.348;2022-08-19T10:14:41;7.20;;;4.68;;
19525;SDS011;9907;42.676;26.348;2022-08-19T10:17:07;4.82;;;4.32;;
19525;SDS011;9907;42.676;26.348;2022-08-19T10:19:33;4.93;;;4.43;;
19525;SDS011;9907;42.676;26.348;2022-08-19T10:22:04;4.72;;;4.32;;
19525;SDS011;9907;42.676;26.348;2022-08-19T10:24:30;4.45;;;4.15;;
19525;SDS011;9907;42.676;26.348;2022-08-19T10:26:57;4.97;;;4.57;;
19525;SDS011;9907;42.676;26.348;2022-08-19T10:29:23;5.20;;;4.55;;
19525;SDS011;9907;42.676;26.348;2022-08-19T10:31:48;16.73;;;10.60;;
19525;SDS011;9907;42.676;26.348;2022-08-19T10:34:14;8.35;;;6.57;;
19525;SDS011;9907;42.676;26.348;2022-08-19T10:36:39;16.98;;;13.88;;
19525;SDS011;9907;42.676;26.348;2022-08-19T10:39:06;14.00;;;10.38;;
19525;SDS011;9907;42.676;26.348;2022-08-19T10:41:34;6.93;;;5.90;;
19525;SDS011;9907;42.676;26.348;2022-08-19T10:44:06;17.27;;;11.93;;
19525;SDS011;9907;42.676;26.348;2022-08-19T10:46:35;8.45;;;7.57;;
19525;SDS011;9907;42.676;26.348;2022-08-19T10:49:03;6.22;;;5.13;;
19525;SDS011;9907;42.676;26.348;2022-08-19T10:51:30;6.78;;;4.88;;
19525;SDS011;9907;42.676;26.348;2022-08-19T10:54:15;5.32;;;4.82;;
19525;SDS011;9907;42.676;26.348;2022-08-19T10:56:40;6.20;;;4.90;;
19525;SDS011;9907;42.676;26.348;2022-08-19T10:59:26;6.43;;;5.93;;
19525;SDS011;9907;42.676;26.348;2022-08-19T11:01:53;7.72;;;6.43;;
19525;SDS011;9907;42.676;26.348;2022-08-19T11:04:24;16.85;;;12.00;;
19525;SDS011;9907;42.676;26.348;2022-08-19T11:06:49;5.97;;;5.38;;
19525;SDS011;9907;42.676;26.348;2022-08-19T11:09:16;9.68;;;6.40;;
19525;SDS011;9907;42.676;26.348;2022-08-19T11:11:43;7.13;;;6.28;;
19525;SDS011;9907;42.676;26.348;2022-08-19T11:14:11;7.63;;;6.22;;
19525;SDS011;9907;42.676;26.348;2022-08-19T11:16:39;7.93;;;5.90;;
19525;SDS011;9907;42.676;26.348;2022-08-19T11:19:07;6.85;;;5.72;;
19525;SDS011;9907;42.676;26.348;2022-08-19T11:21:34;6.03;;;5.28;;
19525;SDS011;9907;42.676;26.348;2022-08-19T11:24:12;5.57;;;4.93;;
19525;SDS011;9907;42.676;26.348;2022-08-19T11:26:41;4.75;;;4.30;;
19525;SDS011;9907;42.676;26.348;2022-08-19T11:29:09;7.97;;;4.80;;
19525;SDS011;9907;42.676;26.348;2022-08-19T11:31:37;8.68;;;5.13;;
19525;SDS011;9907;42.676;26.348;2022-08-19T11:34:06;4.97;;;4.53;;
19525;SDS011;9907;42.676;26.348;2022-08-19T11:36:34;5.38;;;4.80;;
19525;SDS011;9907;42.676;26.348;2022-08-19T11:39:04;5.07;;;4.47;;
19525;SDS011;9907;42.676;26.348;2022-08-19T11:41:31;4.85;;;4.40;;
19525;SDS011;9907;42.676;26.348;2022-08-19T11:43:56;5.05;;;4.50;;
19525;SDS011;9907;42.676;26.348;2022-08-19T11:46:22;5.63;;;5.07;;
19525;SDS011;9907;42.676;26.348;2022-08-19T11:48:51;6.55;;;5.38;;
19525;SDS011;9907;42.676;26.348;2022-08-19T11:51:18;8.70;;;5.53;;
19525;SDS011;9907;42.676;26.348;2022-08-19T11:53:46;5.38;;;4.85;;
19525;SDS011;9907;42.676;26.348;2022-08-19T11:56:12;7.55;;;5.32;;
19525;SDS011;9907;42.676;26.348;2022-08-19T11:58:38;6.28;;;5.68;;
19525;SDS011;9907;42.676;26.348;2022-08-19T12:01:05;10.00;;;8.90;;
19525;SDS011;9907;42.676;26.348;2022-08-19T12:03:32;8.98;;;7.57;;
19525;SDS011;9907;42.676;26.348;2022-08-19T12:05:58;6.13;;;4.97;;
19525;SDS011;9907;42.676;26.348;2022-08-19T12:08:28;8.98;;;5.63;;
19525;SDS011;9907;42.676;26.348;2022-08-19T12:10:54;5.30;;;4.90;;
19525;SDS011;9907;42.676;26.348;2022-08-19T12:13:19;5.22;;;4.72;;
19525;SDS011;9907;42.676;26.348;2022-08-19T12:15:45;5.75;;;5.07;;
19525;SDS011;9907;42.676;26.348;2022-08-19T12:18:12;6.47;;;5.45;;
19525;SDS011;9907;42.676;26.348;2022-08-19T12:20:39;5.90;;;5.40;;
19525;SDS011;9907;42.676;26.348;2022-08-19T12:23:07;5.47;;;5.03;;
19525;SDS011;9907;42.676;26.348;2022-08-19T12:25:37;5.95;;;5.18;;
19525;SDS011;9907;42.676;26.348;2022-08-19T12:28:18;5.82;;;5.15;;
19525;SDS011;9907;42.676;26.348;2022-08-19T12:30:46;5.80;;;5.20;;
19525;SDS011;9907;42.676;26.348;2022-08-19T12:33:12;6.28;;;5.57;;
19525;SDS011;9907;42.676;26.348;2022-08-19T12:35:42;5.93;;;5.43;;
19525;SDS011;9907;42.676;26.348;2022-08-19T12:38:09;6.55;;;5.63;;
19525;SDS011;9907;42.676;26.348;2022-08-19T12:40:35;6.45;;;5.72;;
19525;SDS011;9907;42.676;26.348;2022-08-19T12:43:01;7.85;;;5.70;;
19525;SDS011;9907;42.676;26.348;2022-08-19T12:45:26;6.32;;;5.65;;
19525;SDS011;9907;42.676;26.348;2022-08-19T12:47:52;6.13;;;5.53;;
19525;SDS011;9907;42.676;26.348;2022-08-19T12:50:18;6.10;;;5.15;;
19525;SDS011;9907;42.676;26.348;2022-08-19T12:52:44;7.25;;;5.22;;
19525;SDS011;9907;42.676;26.348;2022-08-19T12:55:10;7.15;;;5.22;;
19525;SDS011;9907;42.676;26.348;2022-08-19T12:57:36;7.95;;;5.28;;
19525;SDS011;9907;42.676;26.348;2022-08-19T13:00:09;5.70;;;5.20;;
19525;SDS011;9907;42.676;26.348;2022-08-19T13:02:42;5.93;;;5.25;;
19525;SDS011;9907;42.676;26.348;2022-08-19T13:05:13;6.78;;;5.18;;
19525;SDS011;9907;42.676;26.348;2022-08-19T13:07:40;7.93;;;5.30;;
19525;SDS011;9907;42.676;26.348;2022-08-19T13:10:09;6.78;;;4.97;;
19525;SDS011;9907;42.676;26.348;2022-08-19T13:12:36;7.00;;;5.75;;
19525;SDS011;9907;42.676;26.348;2022-08-19T13:15:03;5.65;;;5.15;;
19525;SDS011;9907;42.676;26.348;2022-08-19T13:17:29;6.10;;;4.90;;
19525;SDS011;9907;42.676;26.348;2022-08-19T13:19:54;6.05;;;5.35;;
19525;SDS011;9907;42.676;26.348;2022-08-19T13:22:20;6.75;;;5.22;;
19525;SDS011;9907;42.676;26.348;2022-08-19T13:24:45;6.82;;;4.65;;
19525;SDS011;9907;42.676;26.348;2022-08-19T13:27:11;7.22;;;5.47;;
19525;SDS011;9907;42.676;26.348;2022-08-19T13:29:36;5.80;;;5.30;;
19525;SDS011;9907;42.676;26.348;2022-08-19T13:32:20;7.20;;;5.97;;
19525;SDS011;9907;42.676;26.348;2022-08-19T13:35:04;5.70;;;5.13;;
19525;SDS011;9907;42.676;26.348;2022-08-19T13:37:30;8.30;;;5.55;;
19525;SDS011;9907;42.676;26.348;2022-08-19T13:40:09;7.18;;;5.57;;
19525;SDS011;9907;42.676;26.348;2022-08-19T13:42:41;6.28;;;4.97;;
19525;SDS011;9907;42.676;26.348;2022-08-19T13:45:08;7.60;;;5.80;;
19525;SDS011;9907;42.676;26.348;2022-08-19T13:47:35;6.80;;;5.50;;
19525;SDS011;9907;42.676;26.348;2022-08-19T13:50:08;6.30;;;5.28;;
19525;SDS011;9907;42.676;26.348;2022-08-19T13:52:36;6.28;;;5.20;;
19525;SDS011;9907;42.676;26.348;2022-08-19T13:55:02;6.72;;;4.65;;
19525;SDS011;9907;42.676;26.348;2022-08-19T13:57:29;8.27;;;5.43;;
19525;SDS011;9907;42.676;26.348;2022-08-19T13:59:55;11.52;;;6.22;;
19525;SDS011;9907;42.676;26.348;2022-08-19T14:02:22;6.60;;;5.75;;
19525;SDS011;9907;42.676;26.348;2022-08-19T14:04:48;5.43;;;5.07;;
19525;SDS011;9907;42.676;26.348;2022-08-19T14:07:13;9.00;;;5.75;;
19525;SDS011;9907;42.676;26.348;2022-08-19T14:09:39;6.20;;;5.25;;
19525;SDS011;9907;42.676;26.348;2022-08-19T14:12:04;9.18;;;5.35;;
19525;SDS011;9907;42.676;26.348;2022-08-19T14:14:30;6.93;;;5.82;;
19525;SDS011;9907;42.676;26.348;2022-08-19T14:16:56;10.35;;;7.45;;
19525;SDS011;9907;42.676;26.348;2022-08-19T14:19:21;9.40;;;7.40;;
19525;SDS011;9907;42.676;26.348;2022-08-19T14:21:47;14.68;;;9.52;;
19525;SDS011;9907;42.676;26.348;2022-08-19T14:24:12;21.40;;;14.48;;
19525;SDS011;9907;42.676;26.348;2022-08-19T14:26:38;10.75;;;7.30;;
19525;SDS011;9907;42.676;26.348;2022-08-19T14:29:04;9.55;;;7.82;;
19525;SDS011;9907;42.676;26.348;2022-08-19T14:31:29;8.07;;;6.88;;
19525;SDS011;9907;42.676;26.348;2022-08-19T14:33:55;6.95;;;5.90;;
19525;SDS011;9907;42.676;26.348;2022-08-19T14:36:20;6.50;;;5.45;;
19525;SDS011;9907;42.676;26.348;2022-08-19T14:38:47;6.20;;;5.60;;
19525;SDS011;9907;42.676;26.348;2022-08-19T14:43:43;5.78;;;5.18;;
19525;SDS011;9907;42.676;26.348;2022-08-19T14:46:11;6.68;;;5.40;;
19525;SDS011;9907;42.676;26.348;2022-08-19T14:48:41;5.30;;;4.78;;
19525;SDS011;9907;42.676;26.348;2022-08-19T14:51:07;5.70;;;4.95;;
19525;SDS011;9907;42.676;26.348;2022-08-19T14:53:33;7.72;;;6.20;;
19525;SDS011;9907;42.676;26.348;2022-08-19T14:55:59;8.13;;;5.57;;
19525;SDS011;9907;42.676;26.348;2022-08-19T14:58:26;5.93;;;5.20;;
19525;SDS011;9907;42.676;26.348;2022-08-19T15:00:52;9.10;;;6.28;;
19525;SDS011;9907;42.676;26.348;2022-08-19T15:03:17;6.43;;;5.00;;
19525;SDS011;9907;42.676;26.348;2022-08-19T15:05:43;6.43;;;5.43;;
19525;SDS011;9907;42.676;26.348;2022-08-19T15:08:09;8.07;;;5.55;;